Time,TemperatureF,DewpointF,PressureIn,WindDirection,WindDirectionDegrees,WindSpeedMPH,WindSpeedGustMPH,Humidity,HourlyPrecipIn,Conditions,Clouds,dailyrainin,SoftwareType,DateUTC
2013-06-15 00:23:00,59.0,39.0,-100.00,West,264,6.0,9.0,48,-99.99,,,-99.99,,2013-06-15 07:23:00,
2013-06-15 00:43:00,58.0,38.0,-100.00,West,262,6.0,10.0,48,-99.99,,,-99.99,,2013-06-15 07:43:00,
2013-06-15 01:02:00,58.0,41.0,-100.00,West,261,6.0,10.0,53,-99.99,,,-99.99,,2013-06-15 08:02:00,
2013-06-15 01:22:00,58.0,39.0,-100.00,West,260,6.0,10.0,50,-99.99,,,-99.99,,2013-06-15 08:22:00,
2013-06-15 01:33:00,58.0,37.0,-100.00,West,262,6.0,9.0,46,-99.99,,,-99.99,,2013-06-15 08:33:00,
2013-06-15 01:42:00,58.0,36.0,-100.00,West,263,6.0,11.0,44,-99.99,,,-99.99,,2013-06-15 08:42:00,
2013-06-15 01:53:00,58.0,36.0,-100.00,West,260,7.0,11.0,44,-99.99,,,-99.99,,2013-06-15 08:53:00,
2013-06-15 02:02:00,58.0,36.0,-100.00,West,260,7.0,11.0,44,-99.99,,,-99.99,,2013-06-15 09:02:00,
2013-06-15 02:12:00,57.0,34.0,-100.00,West,262,6.0,10.0,41,-99.99,,,-99.99,,2013-06-15 09:12:00,
2013-06-15 02:22:00,57.0,32.0,-100.00,West,263,6.0,10.0,38,-99.99,,,-99.99,,2013-06-15 09:22:00,
2013-06-15 02:33:00,57.0,32.0,-100.00,West,263,6.0,10.0,38,-99.99,,,-99.99,,2013-06-15 09:33:00,
2013-06-15 02:43:00,57.0,27.0,-100.00,West,264,6.0,9.0,32,-99.99,,,-99.99,,2013-06-15 09:43:00,
2013-06-15 02:52:00,57.0,27.0,-100.00,West,264,6.0,9.0,32,-99.99,,,-99.99,,2013-06-15 09:52:00,
2013-06-15 03:02:00,57.0,26.0,-100.00,West,264,6.0,10.0,30,-99.99,,,-99.99,,2013-06-15 10:02:00,
2013-06-15 03:11:00,57.0,26.0,-100.00,West,264,6.0,10.0,30,-99.99,,,-99.99,,2013-06-15 10:11:00,
2013-06-15 03:23:00,57.0,26.0,-100.00,West,263,7.0,10.0,30,-99.99,,,-99.99,,2013-06-15 10:23:00,
2013-06-15 03:33:00,58.0,26.0,-100.00,West,263,6.0,10.0,29,-99.99,,,-99.99,,2013-06-15 10:33:00,
2013-06-15 03:43:00,57.0,23.0,-100.00,West,262,5.0,8.0,27,-99.99,,,-99.99,,2013-06-15 10:43:00,
2013-06-15 03:53:00,57.0,23.0,-100.00,West,262,5.0,8.0,27,-99.99,,,-99.99,,2013-06-15 10:53:00,
2013-06-15 04:01:00,56.0,20.0,-100.00,West,261,6.0,9.0,24,-99.99,,,-99.99,,2013-06-15 11:01:00,
2013-06-15 04:11:00,57.0,19.0,-100.00,West,259,6.0,9.0,22,-99.99,,,-99.99,,2013-06-15 11:11:00,
2013-06-15 04:22:00,57.0,16.0,-100.00,WSW,256,5.0,8.0,20,-99.99,,,-99.99,,2013-06-15 11:22:00,
2013-06-15 04:33:00,57.0,15.0,-100.00,WSW,256,5.0,10.0,19,-99.99,,,-99.99,,2013-06-15 11:33:00,
2013-06-15 04:43:00,57.0,14.0,-100.00,WSW,258,5.0,10.0,18,-99.99,,,-99.99,,2013-06-15 11:43:00,
2013-06-15 04:53:00,57.0,14.0,-100.00,WSW,258,5.0,10.0,18,-99.99,,,-99.99,,2013-06-15 11:53:00,
2013-06-15 05:01:00,56.0,13.0,-100.00,West,259,5.0,8.0,18,-99.99,,,-99.99,,2013-06-15 12:01:00,
2013-06-15 05:11:00,56.0,13.0,-100.00,West,259,5.0,8.0,18,-99.99,,,-99.99,,2013-06-15 12:11:00,
2013-06-15 05:22:00,56.0,13.0,-100.00,WSW,255,4.0,7.0,18,-99.99,,,-99.99,,2013-06-15 12:22:00,
2013-06-15 05:33:00,56.0,13.0,-100.00,WSW,256,4.0,7.0,18,-99.99,,,-99.99,,2013-06-15 12:33:00,
2013-06-15 05:43:00,57.0,13.0,-100.00,WSW,257,4.0,7.0,17,-99.99,,,-99.99,,2013-06-15 12:43:00,
2013-06-15 05:52:00,57.0,13.0,-100.00,WSW,257,4.0,7.0,17,-99.99,,,-99.99,,2013-06-15 12:52:00,
2013-06-15 06:02:00,58.0,9.0,-100.00,West,265,5.0,9.0,14,-99.99,,,-99.99,,2013-06-15 13:02:00,
2013-06-15 06:11:00,58.0,7.0,-100.00,West,262,5.0,9.0,13,-99.99,,,-99.99,,2013-06-15 13:11:00,
2013-06-15 06:22:00,62.0,5.0,-100.00,West,269,7.0,10.0,10,-99.99,,,-99.99,,2013-06-15 13:22:00,
2013-06-15 06:32:00,62.0,5.0,-100.00,West,269,7.0,10.0,10,-99.99,,,-99.99,,2013-06-15 13:32:00,
2013-06-15 06:43:00,62.0,5.0,-100.00,West,269,6.0,11.0,10,-99.99,,,-99.99,,2013-06-15 13:43:00,
2013-06-15 06:53:00,62.0,5.0,-100.00,West,269,6.0,11.0,10,-99.99,,,-99.99,,2013-06-15 13:53:00,
2013-06-15 07:01:00,62.0,7.0,-100.00,West,268,5.0,9.0,11,-99.99,,,-99.99,,2013-06-15 14:01:00,
2013-06-15 07:12:00,62.0,9.0,-100.00,West,262,3.0,7.0,12,-99.99,,,-99.99,,2013-06-15 14:12:00,
2013-06-15 07:22:00,62.0,9.0,-100.00,West,262,3.0,7.0,12,-99.99,,,-99.99,,2013-06-15 14:22:00,
2013-06-15 07:34:00,65.0,5.0,-100.00,WSW,248,3.0,7.0,9,-99.99,,,-99.99,,2013-06-15 14:34:00,
2013-06-15 07:43:00,66.0,0.0,-100.00,West,269,4.0,7.0,7,-99.99,,,-99.99,,2013-06-15 14:43:00,
2013-06-15 07:53:00,66.0,0.0,-100.00,West,269,4.0,7.0,7,-99.99,,,-99.99,,2013-06-15 14:53:00,
2013-06-15 08:01:00,67.0,-2.0,-100.00,West,281,6.0,11.0,6,-99.99,,,-99.99,,2013-06-15 15:01:00,
2013-06-15 08:11:00,67.0,-2.0,-100.00,WNW,286,6.0,11.0,6,-99.99,,,-99.99,,2013-06-15 15:11:00,
2013-06-15 08:22:00,68.0,-2.0,-100.00,West,281,8.0,11.0,6,-99.99,,,-99.99,,2013-06-15 15:22:00,
2013-06-15 08:33:00,68.0,-2.0,-100.00,West,280,8.0,13.0,6,-99.99,,,-99.99,,2013-06-15 15:33:00,
2013-06-15 08:42:00,68.0,5.0,-100.00,West,277,9.0,14.0,8,-99.99,,,-99.99,,2013-06-15 15:42:00,
2013-06-15 08:53:00,68.0,5.0,-100.00,West,277,9.0,14.0,8,-99.99,,,-99.99,,2013-06-15 15:53:00,
2013-06-15 09:01:00,69.0,2.0,-100.00,West,273,8.0,13.0,7,-99.99,,,-99.99,,2013-06-15 16:01:00,
2013-06-15 09:11:00,69.0,2.0,-100.00,West,266,8.0,13.0,7,-99.99,,,-99.99,,2013-06-15 16:11:00,
2013-06-15 09:22:00,69.0,2.0,-100.00,West,271,9.0,14.0,7,-99.99,,,-99.99,,2013-06-15 16:22:00,
2013-06-15 09:33:00,69.0,2.0,-100.00,West,271,9.0,14.0,7,-99.99,,,-99.99,,2013-06-15 16:33:00,
2013-06-15 09:43:00,70.0,3.0,-100.00,West,271,8.0,13.0,7,-99.99,,,-99.99,,2013-06-15 16:43:00,
2013-06-15 09:53:00,70.0,3.0,-100.00,West,271,8.0,13.0,7,-99.99,,,-99.99,,2013-06-15 16:53:00,
2013-06-15 10:01:00,70.0,3.0,-100.00,West,269,7.0,12.0,7,-99.99,,,-99.99,,2013-06-15 17:01:00,
2013-06-15 10:11:00,71.0,4.0,-100.00,West,265,7.0,12.0,7,-99.99,,,-99.99,,2013-06-15 17:11:00,
2013-06-15 10:21:00,71.0,4.0,-100.00,West,274,8.0,12.0,7,-99.99,,,-99.99,,2013-06-15 17:21:00,
2013-06-15 10:32:00,71.0,4.0,-100.00,West,272,7.0,12.0,7,-99.99,,,-99.99,,2013-06-15 17:32:00,
2013-06-15 10:43:00,72.0,1.0,-100.00,West,274,9.0,14.0,6,-99.99,,,-99.99,,2013-06-15 17:43:00,
2013-06-15 10:52:00,72.0,1.0,-100.00,West,274,9.0,14.0,6,-99.99,,,-99.99,,2013-06-15 17:52:00,
2013-06-15 11:01:00,72.0,1.0,-100.00,West,274,8.0,12.0,6,-99.99,,,-99.99,,2013-06-15 18:01:00,
2013-06-15 11:11:00,73.0,5.0,-100.00,West,277,8.0,12.0,7,-99.99,,,-99.99,,2013-06-15 18:11:00,
2013-06-15 11:22:00,73.0,5.0,-100.00,West,277,8.0,12.0,7,-99.99,,,-99.99,,2013-06-15 18:22:00,
2013-06-15 11:32:00,73.0,11.0,-100.00,West,271,7.0,12.0,9,-99.99,,,-99.99,,2013-06-15 18:32:00,
2013-06-15 11:43:00,74.0,12.0,-100.00,West,278,7.0,12.0,9,-99.99,,,-99.99,,2013-06-15 18:43:00,
2013-06-15 11:53:00,73.0,11.0,-100.00,West,278,7.0,13.0,9,-99.99,,,-99.99,,2013-06-15 18:53:00,
2013-06-15 12:01:00,74.0,12.0,-100.00,West,276,7.0,14.0,9,-99.99,,,-99.99,,2013-06-15 19:01:00,
2013-06-15 12:11:00,74.0,12.0,-100.00,West,271,8.0,15.0,9,-99.99,,,-99.99,,2013-06-15 19:11:00,
2013-06-15 12:22:00,74.0,12.0,-100.00,West,273,7.0,13.0,9,-99.99,,,-99.99,,2013-06-15 19:22:00,
2013-06-15 12:32:00,74.0,16.0,-100.00,WNW,282,7.0,13.0,11,-99.99,,,-99.99,,2013-06-15 19:32:00,
2013-06-15 12:43:00,74.0,18.0,-100.00,West,281,8.0,13.0,12,-99.99,,,-99.99,,2013-06-15 19:43:00,
2013-06-15 12:52:00,74.0,18.0,-100.00,West,281,8.0,13.0,12,-99.99,,,-99.99,,2013-06-15 19:52:00,
2013-06-15 13:01:00,75.0,21.0,-100.00,West,275,9.0,15.0,13,-99.99,,,-99.99,,2013-06-15 20:01:00,
2013-06-15 13:11:00,75.0,21.0,-100.00,West,275,9.0,15.0,13,-99.99,,,-99.99,,2013-06-15 20:11:00,
2013-06-15 13:22:00,75.0,23.0,-100.00,West,275,8.0,14.0,14,-99.99,,,-99.99,,2013-06-15 20:22:00,
2013-06-15 13:33:00,75.0,23.0,-100.00,West,278,9.0,15.0,14,-99.99,,,-99.99,,2013-06-15 20:33:00,
2013-06-15 13:43:00,75.0,23.0,-100.00,West,276,8.0,16.0,14,-99.99,,,-99.99,,2013-06-15 20:43:00,
2013-06-15 13:52:00,74.0,23.0,-100.00,West,281,10.0,18.0,15,-99.99,,,-99.99,,2013-06-15 20:52:00,
2013-06-15 14:01:00,75.0,26.0,-100.00,West,272,8.0,15.0,16,-99.99,,,-99.99,,2013-06-15 21:01:00,
2013-06-15 14:11:00,75.0,26.0,-100.00,West,272,8.0,15.0,16,-99.99,,,-99.99,,2013-06-15 21:11:00,
2013-06-15 14:22:00,75.0,27.0,-100.00,West,281,9.0,16.0,17,-99.99,,,-99.99,,2013-06-15 21:22:00,
2013-06-15 14:33:00,74.0,26.0,-100.00,West,272,10.0,18.0,17,-99.99,,,-99.99,,2013-06-15 21:33:00,
2013-06-15 14:42:00,74.0,28.0,-100.00,West,276,10.0,16.0,18,-99.99,,,-99.99,,2013-06-15 21:42:00,
2013-06-15 14:52:00,74.0,28.0,-100.00,West,276,10.0,16.0,18,-99.99,,,-99.99,,2013-06-15 21:52:00,
2013-06-15 15:01:00,74.0,29.0,-100.00,West,276,10.0,17.0,19,-99.99,,,-99.99,,2013-06-15 22:01:00,
2013-06-15 15:11:00,74.0,29.0,-100.00,West,276,10.0,17.0,19,-99.99,,,-99.99,,2013-06-15 22:11:00,
2013-06-15 15:22:00,74.0,32.0,-100.00,West,280,12.0,18.0,21,-99.99,,,-99.99,,2013-06-15 22:22:00,
2013-06-15 15:32:00,74.0,34.0,-100.00,West,277,12.0,19.0,23,-99.99,,,-99.99,,2013-06-15 22:32:00,
2013-06-15 15:42:00,73.0,34.0,-100.00,West,278,12.0,19.0,24,-99.99,,,-99.99,,2013-06-15 22:42:00,
2013-06-15 15:53:00,73.0,36.0,-100.00,West,276,12.0,19.0,26,-99.99,,,-99.99,,2013-06-15 22:53:00,
2013-06-15 16:01:00,73.0,35.0,-100.00,West,276,11.0,20.0,25,-99.99,,,-99.99,,2013-06-15 23:01:00,
2013-06-15 16:11:00,73.0,36.0,-100.00,West,274,11.0,19.0,26,-99.99,,,-99.99,,2013-06-15 23:11:00,
2013-06-15 16:22:00,73.0,36.0,-100.00,West,274,11.0,19.0,26,-99.99,,,-99.99,,2013-06-15 23:22:00,
2013-06-15 16:33:00,73.0,37.0,-100.00,West,273,12.0,19.0,27,-99.99,,,-99.99,,2013-06-15 23:33:00,
2013-06-15 16:42:00,72.0,37.0,-100.00,West,281,12.0,18.0,28,-99.99,,,-99.99,,2013-06-15 23:42:00,
2013-06-15 16:52:00,71.0,37.0,-100.00,West,279,12.0,18.0,29,-99.99,,,-99.99,,2013-06-15 23:52:00,
2013-06-15 17:01:00,71.0,37.0,-100.00,WNW,282,11.0,18.0,29,-99.99,,,-99.99,,2013-06-16 00:01:00,
2013-06-15 17:11:00,71.0,37.0,-100.00,WNW,282,11.0,18.0,29,-99.99,,,-99.99,,2013-06-16 00:11:00,
2013-06-15 17:22:00,71.0,37.0,-100.00,West,273,11.0,17.0,29,-99.99,,,-99.99,,2013-06-16 00:22:00,
2013-06-15 17:33:00,70.0,38.0,-100.00,West,281,13.0,20.0,31,-99.99,,,-99.99,,2013-06-16 00:33:00,
2013-06-15 17:43:00,70.0,39.0,-100.00,West,278,12.0,18.0,32,-99.99,,,-99.99,,2013-06-16 00:43:00,
2013-06-15 17:52:00,70.0,39.0,-100.00,West,278,12.0,18.0,32,-99.99,,,-99.99,,2013-06-16 00:52:00,
2013-06-15 18:01:00,69.0,40.0,-100.00,West,272,11.0,16.0,35,-99.99,,,-99.99,,2013-06-16 01:01:00,
2013-06-15 18:11:00,69.0,40.0,-100.00,West,272,11.0,16.0,35,-99.99,,,-99.99,,2013-06-16 01:11:00,
2013-06-15 18:22:00,69.0,42.0,-100.00,West,276,11.0,17.0,37,-99.99,,,-99.99,,2013-06-16 01:22:00,
2013-06-15 18:33:00,68.0,41.0,-100.00,West,270,10.0,17.0,38,-99.99,,,-99.99,,2013-06-16 01:33:00,
2013-06-15 18:42:00,68.0,41.0,-100.00,West,264,10.0,20.0,37,-99.99,,,-99.99,,2013-06-16 01:42:00,
2013-06-15 18:53:00,68.0,41.0,-100.00,West,263,9.0,16.0,38,-99.99,,,-99.99,,2013-06-16 01:53:00,
2013-06-15 19:01:00,67.0,42.0,-100.00,West,266,9.0,17.0,40,-99.99,,,-99.99,,2013-06-16 02:01:00,
2013-06-15 19:11:00,66.0,43.0,-100.00,West,266,10.0,16.0,43,-99.99,,,-99.99,,2013-06-16 02:11:00,
2013-06-15 19:22:00,66.0,44.0,-100.00,West,261,9.0,17.0,45,-99.99,,,-99.99,,2013-06-16 02:22:00,
2013-06-15 19:33:00,65.0,44.0,-100.00,West,264,9.0,13.0,47,-99.99,,,-99.99,,2013-06-16 02:33:00,
2013-06-15 19:42:00,65.0,45.0,-100.00,West,268,9.0,14.0,49,-99.99,,,-99.99,,2013-06-16 02:42:00,
2013-06-15 19:53:00,64.0,46.0,-100.00,West,265,9.0,14.0,52,-99.99,,,-99.99,,2013-06-16 02:53:00,
2013-06-15 20:01:00,62.0,46.0,-100.00,West,262,7.0,13.0,56,-99.99,,,-99.99,,2013-06-16 03:01:00,
2013-06-15 20:11:00,61.0,46.0,-100.00,West,264,7.0,13.0,58,-99.99,,,-99.99,,2013-06-16 03:11:00,
2013-06-15 20:22:00,61.0,46.0,-100.00,West,264,7.0,13.0,58,-99.99,,,-99.99,,2013-06-16 03:22:00,
2013-06-15 20:33:00,60.0,47.0,-100.00,West,263,8.0,13.0,61,-99.99,,,-99.99,,2013-06-16 03:33:00,
2013-06-15 20:43:00,60.0,47.0,-100.00,West,260,7.0,13.0,62,-99.99,,,-99.99,,2013-06-16 03:43:00,
2013-06-15 20:53:00,59.0,46.0,-100.00,West,262,7.0,11.0,63,-99.99,,,-99.99,,2013-06-16 03:53:00,
2013-06-15 21:01:00,59.0,46.0,-100.00,West,267,6.0,10.0,62,-99.99,,,-99.99,,2013-06-16 04:01:00,
2013-06-15 21:12:00,58.0,43.0,-100.00,West,272,6.0,10.0,58,-99.99,,,-99.99,,2013-06-16 04:12:00,
2013-06-15 21:23:00,58.0,43.0,-100.00,West,272,6.0,10.0,58,-99.99,,,-99.99,,2013-06-16 04:23:00,
2013-06-15 21:33:00,59.0,37.0,-100.00,West,272,7.0,10.0,44,-99.99,,,-99.99,,2013-06-16 04:33:00,
2013-06-15 21:42:00,59.0,32.0,-100.00,West,269,7.0,10.0,36,-99.99,,,-99.99,,2013-06-16 04:42:00,
2013-06-15 22:01:00,63.0,11.0,-100.00,WSW,255,5.0,12.0,13,-99.99,,,-99.99,,2013-06-16 05:01:00,
2013-06-15 22:22:00,63.0,13.0,-100.00,WSW,250,5.0,11.0,14,-99.99,,,-99.99,,2013-06-16 05:22:00,
2013-06-15 22:43:00,64.0,6.0,-100.00,WSW,250,6.0,11.0,10,-99.99,,,-99.99,,2013-06-16 05:43:00,
2013-06-15 22:50:00,63.0,3.0,-100.00,WSW,256,7.0,13.0,9,-99.99,,,-99.99,,2013-06-16 05:50:00,
2013-06-15 22:52:00,64.0,6.0,-100.00,WSW,245,7.0,14.0,10,-99.99,,,-99.99,,2013-06-16 05:52:00,
2013-06-15 23:01:00,64.0,4.0,-100.00,WSW,251,7.0,12.0,9,-99.99,,,-99.99,,2013-06-16 06:01:00,
2013-06-15 23:11:00,64.0,4.0,-100.00,WSW,251,7.0,12.0,9,-99.99,,,-99.99,,2013-06-16 06:11:00,
2013-06-15 23:22:00,63.0,3.0,-100.00,WSW,256,7.0,13.0,9,-99.99,,,-99.99,,2013-06-16 06:22:00,
2013-06-15 23:33:00,63.0,3.0,-100.00,WSW,256,7.0,13.0,9,-99.99,,,-99.99,,2013-06-16 06:33:00,
2013-06-15 23:43:00,63.0,3.0,-100.00,WSW,256,7.0,13.0,9,-99.99,,,-99.99,,2013-06-16 06:43:00,